sensor_id;sensor_type;location;lat;lon;timestamp;P1;durP1;ratioP1;P2;durP2;ratioP2
8293;SDS011;4185;41.506;24.938;2022-09-02T00:00:51;14.07;;;12.57;;
8293;SDS011;4185;41.506;24.938;2022-09-02T00:03:24;14.67;;;12.03;;
8293;SDS011;4185;41.506;24.938;2022-09-02T00:05:52;14.57;;;12.57;;
8293;SDS011;4185;41.506;24.938;2022-09-02T00:08:19;14.63;;;12.23;;
8293;SDS011;4185;41.506;24.938;2022-09-02T00:10:47;14.50;;;12.90;;
8293;SDS011;4185;41.506;24.938;2022-09-02T00:13:15;15.40;;;12.20;;
8293;SDS011;4185;41.506;24.938;2022-09-02T00:15:43;13.93;;;12.23;;
8293;SDS011;4185;41.506;24.938;2022-09-02T00:18:10;15.80;;;12.30;;
8293;SDS011;4185;41.506;24.938;2022-09-02T00:20:39;14.30;;;12.80;;
8293;SDS011;4185;41.506;24.938;2022-09-02T00:23:06;13.37;;;11.90;;
8293;SDS011;4185;41.506;24.938;2022-09-02T00:25:33;17.23;;;12.53;;
8293;SDS011;4185;41.506;24.938;2022-09-02T00:28:02;15.73;;;12.63;;
8293;SDS011;4185;41.506;24.938;2022-09-02T00:30:29;14.33;;;12.50;;
8293;SDS011;4185;41.506;24.938;2022-09-02T00:32:56;16.83;;;12.80;;
8293;SDS011;4185;41.506;24.938;2022-09-02T00:35:23;13.83;;;12.23;;
8293;SDS011;4185;41.506;24.938;2022-09-02T00:37:50;15.27;;;11.90;;
8293;SDS011;4185;41.506;24.938;2022-09-02T00:40:17;18.40;;;13.10;;
8293;SDS011;4185;41.506;24.938;2022-09-02T00:42:45;14.60;;;12.97;;
8293;SDS011;4185;41.506;24.938;2022-09-02T00:45:13;16.67;;;12.53;;
8293;SDS011;4185;41.506;24.938;2022-09-02T00:47:42;15.83;;;13.10;;
8293;SDS011;4185;41.506;24.938;2022-09-02T00:50:11;14.13;;;12.63;;
8293;SDS011;4185;41.506;24.938;2022-09-02T00:52:41;15.37;;;12.47;;
8293;SDS011;4185;41.506;24.938;2022-09-02T00:55:12;16.57;;;13.10;;
8293;SDS011;4185;41.506;24.938;2022-09-02T00:57:42;16.23;;;13.07;;
8293;SDS011;4185;41.506;24.938;2022-09-02T01:00:15;16.50;;;12.77;;
8293;SDS011;4185;41.506;24.938;2022-09-02T01:02:45;17.73;;;12.93;;
8293;SDS011;4185;41.506;24.938;2022-09-02T01:05:15;18.70;;;12.83;;
8293;SDS011;4185;41.506;24.938;2022-09-02T01:07:44;18.70;;;13.30;;
8293;SDS011;4185;41.506;24.938;2022-09-02T01:10:13;15.47;;;13.33;;
8293;SDS011;4185;41.506;24.938;2022-09-02T01:12:47;18.37;;;12.27;;
8293;SDS011;4185;41.506;24.938;2022-09-02T01:15:15;16.37;;;12.47;;
8293;SDS011;4185;41.506;24.938;2022-09-02T01:17:44;14.07;;;12.67;;
8293;SDS011;4185;41.506;24.938;2022-09-02T01:20:16;14.97;;;12.13;;
8293;SDS011;4185;41.506;24.938;2022-09-02T01:22:46;15.17;;;13.20;;
8293;SDS011;4185;41.506;24.938;2022-09-02T01:25:15;15.40;;;12.70;;
8293;SDS011;4185;41.506;24.938;2022-09-02T01:27:45;14.53;;;12.43;;
8293;SDS011;4185;41.506;24.938;2022-09-02T01:30:13;14.37;;;12.87;;
8293;SDS011;4185;41.506;24.938;2022-09-02T01:32:42;16.80;;;13.30;;
8293;SDS011;4185;41.506;24.938;2022-09-02T01:35:09;16.07;;;13.47;;
8293;SDS011;4185;41.506;24.938;2022-09-02T01:37:36;15.17;;;13.37;;
8293;SDS011;4185;41.506;24.938;2022-09-02T01:40:06;16.50;;;12.40;;
8293;SDS011;4185;41.506;24.938;2022-09-02T01:42:34;14.60;;;13.10;;
8293;SDS011;4185;41.506;24.938;2022-09-02T01:45:02;17.37;;;13.77;;
8293;SDS011;4185;41.506;24.938;2022-09-02T01:47:29;17.03;;;13.93;;
8293;SDS011;4185;41.506;24.938;2022-09-02T01:49:57;17.67;;;12.20;;
8293;SDS011;4185;41.506;24.938;2022-09-02T01:52:25;14.47;;;12.73;;
8293;SDS011;4185;41.506;24.938;2022-09-02T01:54:53;17.63;;;13.33;;
8293;SDS011;4185;41.506;24.938;2022-09-02T01:57:22;14.70;;;12.53;;
8293;SDS011;4185;41.506;24.938;2022-09-02T01:59:49;16.33;;;13.07;;
8293;SDS011;4185;41.506;24.938;2022-09-02T02:02:16;17.07;;;13.17;;
8293;SDS011;4185;41.506;24.938;2022-09-02T02:04:44;15.90;;;12.43;;
8293;SDS011;4185;41.506;24.938;2022-09-02T02:07:12;16.87;;;13.03;;
8293;SDS011;4185;41.506;24.938;2022-09-02T02:09:40;15.60;;;13.77;;
8293;SDS011;4185;41.506;24.938;2022-09-02T02:12:08;17.90;;;13.57;;
8293;SDS011;4185;41.506;24.938;2022-09-02T02:14:36;15.40;;;13.07;;
8293;SDS011;4185;41.506;24.938;2022-09-02T02:17:03;15.53;;;13.20;;
8293;SDS011;4185;41.506;24.938;2022-09-02T02:19:30;20.17;;;13.57;;
8293;SDS011;4185;41.506;24.938;2022-09-02T02:21:57;17.23;;;14.00;;
8293;SDS011;4185;41.506;24.938;2022-09-02T02:24:24;15.27;;;13.00;;
8293;SDS011;4185;41.506;24.938;2022-09-02T02:26:51;15.83;;;13.17;;
8293;SDS011;4185;41.506;24.938;2022-09-02T02:29:18;16.17;;;13.40;;
8293;SDS011;4185;41.506;24.938;2022-09-02T02:31:47;14.87;;;13.27;;
8293;SDS011;4185;41.506;24.938;2022-09-02T02:34:14;15.67;;;12.50;;
8293;SDS011;4185;41.506;24.938;2022-09-02T02:36:42;17.77;;;14.17;;
8293;SDS011;4185;41.506;24.938;2022-09-02T02:39:10;18.20;;;13.00;;
8293;SDS011;4185;41.506;24.938;2022-09-02T02:41:38;15.00;;;13.00;;
8293;SDS011;4185;41.506;24.938;2022-09-02T02:44:06;16.87;;;13.43;;
8293;SDS011;4185;41.506;24.938;2022-09-02T02:46:33;14.97;;;12.73;;
8293;SDS011;4185;41.506;24.938;2022-09-02T02:49:02;17.63;;;13.27;;
8293;SDS011;4185;41.506;24.938;2022-09-02T02:51:30;17.20;;;13.50;;
8293;SDS011;4185;41.506;24.938;2022-09-02T02:53:57;18.10;;;13.40;;
8293;SDS011;4185;41.506;24.938;2022-09-02T02:56:25;15.20;;;12.83;;
8293;SDS011;4185;41.506;24.938;2022-09-02T02:58:52;17.57;;;14.17;;
8293;SDS011;4185;41.506;24.938;2022-09-02T03:01:19;17.33;;;13.37;;
8293;SDS011;4185;41.506;24.938;2022-09-02T03:03:46;18.47;;;14.20;;
8293;SDS011;4185;41.506;24.938;2022-09-02T03:06:14;15.23;;;12.77;;
8293;SDS011;4185;41.506;24.938;2022-09-02T03:08:41;16.00;;;13.20;;
8293;SDS011;4185;41.506;24.938;2022-09-02T03:11:08;20.87;;;13.60;;
8293;SDS011;4185;41.506;24.938;2022-09-02T03:13:35;17.43;;;13.63;;
8293;SDS011;4185;41.506;24.938;2022-09-02T03:16:02;14.93;;;12.97;;
8293;SDS011;4185;41.506;24.938;2022-09-02T03:18:30;14.73;;;13.07;;
8293;SDS011;4185;41.506;24.938;2022-09-02T03:20:57;16.23;;;12.70;;
8293;SDS011;4185;41.506;24.938;2022-09-02T03:23:25;16.20;;;13.27;;
8293;SDS011;4185;41.506;24.938;2022-09-02T03:25:52;16.07;;;13.40;;
8293;SDS011;4185;41.506;24.938;2022-09-02T03:28:19;18.47;;;13.20;;
8293;SDS011;4185;41.506;24.938;2022-09-02T03:30:46;18.33;;;13.37;;
8293;SDS011;4185;41.506;24.938;2022-09-02T03:33:14;16.23;;;13.70;;
8293;SDS011;4185;41.506;24.938;2022-09-02T03:35:41;17.47;;;12.93;;
8293;SDS011;4185;41.506;24.938;2022-09-02T03:38:10;15.87;;;13.03;;
8293;SDS011;4185;41.506;24.938;2022-09-02T03:40:39;15.43;;;12.70;;
8293;SDS011;4185;41.506;24.938;2022-09-02T03:43:06;14.33;;;12.57;;
8293;SDS011;4185;41.506;24.938;2022-09-02T03:45:33;16.23;;;12.77;;
8293;SDS011;4185;41.506;24.938;2022-09-02T03:48:00;14.27;;;12.77;;
8293;SDS011;4185;41.506;24.938;2022-09-02T03:50:28;17.77;;;13.20;;
8293;SDS011;4185;41.506;24.938;2022-09-02T03:52:56;18.93;;;13.77;;
8293;SDS011;4185;41.506;24.938;2022-09-02T03:55:24;15.07;;;13.47;;
8293;SDS011;4185;41.506;24.938;2022-09-02T03:57:53;18.17;;;13.83;;
8293;SDS011;4185;41.506;24.938;2022-09-02T04:00:21;18.37;;;13.77;;
8293;SDS011;4185;41.506;24.938;2022-09-02T04:02:49;20.07;;;14.43;;
8293;SDS011;4185;41.506;24.938;2022-09-02T04:05:19;18.40;;;14.93;;
8293;SDS011;4185;41.506;24.938;2022-09-02T04:07:46;17.83;;;14.00;;
8293;SDS011;4185;41.506;24.938;2022-09-02T04:10:15;22.90;;;16.43;;
8293;SDS011;4185;41.506;24.938;2022-09-02T04:12:42;21.73;;;15.17;;
8293;SDS011;4185;41.506;24.938;2022-09-02T04:15:10;19.33;;;14.47;;
8293;SDS011;4185;41.506;24.938;2022-09-02T04:17:38;18.20;;;14.43;;
8293;SDS011;4185;41.506;24.938;2022-09-02T04:20:07;18.63;;;12.97;;
8293;SDS011;4185;41.506;24.938;2022-09-02T04:22:36;18.83;;;15.07;;
8293;SDS011;4185;41.506;24.938;2022-09-02T04:25:04;20.63;;;15.53;;
8293;SDS011;4185;41.506;24.938;2022-09-02T04:27:33;18.80;;;14.27;;
8293;SDS011;4185;41.506;24.938;2022-09-02T04:30:00;18.27;;;14.73;;
8293;SDS011;4185;41.506;24.938;2022-09-02T04:32:29;17.90;;;14.90;;
8293;SDS011;4185;41.506;24.938;2022-09-02T04:34:56;18.13;;;15.17;;
8293;SDS011;4185;41.506;24.938;2022-09-02T04:37:23;15.60;;;13.40;;
8293;SDS011;4185;41.506;24.938;2022-09-02T04:39:51;18.33;;;13.20;;
8293;SDS011;4185;41.506;24.938;2022-09-02T04:42:18;17.00;;;13.97;;
8293;SDS011;4185;41.506;24.938;2022-09-02T04:44:45;17.20;;;13.63;;
8293;SDS011;4185;41.506;24.938;2022-09-02T04:47:12;19.50;;;15.53;;
8293;SDS011;4185;41.506;24.938;2022-09-02T04:49:40;17.40;;;14.23;;
8293;SDS011;4185;41.506;24.938;2022-09-02T04:52:07;16.77;;;13.57;;
8293;SDS011;4185;41.506;24.938;2022-09-02T04:54:34;18.43;;;14.53;;
8293;SDS011;4185;41.506;24.938;2022-09-02T04:57:02;19.40;;;15.23;;
8293;SDS011;4185;41.506;24.938;2022-09-02T04:59:29;19.77;;;14.70;;
8293;SDS011;4185;41.506;24.938;2022-09-02T05:01:56;20.10;;;15.33;;
8293;SDS011;4185;41.506;24.938;2022-09-02T05:04:23;19.40;;;14.57;;
8293;SDS011;4185;41.506;24.938;2022-09-02T05:06:52;18.20;;;15.23;;
8293;SDS011;4185;41.506;24.938;2022-09-02T05:09:20;15.90;;;14.13;;
8293;SDS011;4185;41.506;24.938;2022-09-02T05:11:46;16.60;;;14.37;;
8293;SDS011;4185;41.506;24.938;2022-09-02T05:14:14;17.50;;;15.27;;
8293;SDS011;4185;41.506;24.938;2022-09-02T05:16:41;19.07;;;14.73;;
8293;SDS011;4185;41.506;24.938;2022-09-02T05:19:09;18.40;;;14.73;;
8293;SDS011;4185;41.506;24.938;2022-09-02T05:21:38;17.00;;;15.20;;
8293;SDS011;4185;41.506;24.938;2022-09-02T05:24:08;20.50;;;14.37;;
8293;SDS011;4185;41.506;24.938;2022-09-02T05:26:35;19.50;;;15.93;;
8293;SDS011;4185;41.506;24.938;2022-09-02T05:29:03;17.80;;;15.30;;
8293;SDS011;4185;41.506;24.938;2022-09-02T05:31:31;20.50;;;15.73;;
8293;SDS011;4185;41.506;24.938;2022-09-02T05:33:58;23.80;;;16.00;;
8293;SDS011;4185;41.506;24.938;2022-09-02T05:36:25;18.30;;;15.23;;
8293;SDS011;4185;41.506;24.938;2022-09-02T05:38:52;19.47;;;14.77;;
8293;SDS011;4185;41.506;24.938;2022-09-02T05:41:21;20.40;;;15.70;;
8293;SDS011;4185;41.506;24.938;2022-09-02T05:43:49;19.03;;;15.57;;
8293;SDS011;4185;41.506;24.938;2022-09-02T05:46:17;19.30;;;15.80;;
8293;SDS011;4185;41.506;24.938;2022-09-02T05:48:45;19.83;;;16.03;;
8293;SDS011;4185;41.506;24.938;2022-09-02T05:51:30;19.90;;;14.87;;
8293;SDS011;4185;41.506;24.938;2022-09-02T05:53:59;25.30;;;15.97;;
8293;SDS011;4185;41.506;24.938;2022-09-02T05:56:28;17.90;;;15.70;;
8293;SDS011;4185;41.506;24.938;2022-09-02T05:58:55;18.27;;;13.97;;
8293;SDS011;4185;41.506;24.938;2022-09-02T06:01:24;16.97;;;14.43;;
8293;SDS011;4185;41.506;24.938;2022-09-02T06:03:51;18.03;;;13.60;;
8293;SDS011;4185;41.506;24.938;2022-09-02T06:06:18;17.93;;;14.77;;
8293;SDS011;4185;41.506;24.938;2022-09-02T06:08:48;17.13;;;14.10;;
8293;SDS011;4185;41.506;24.938;2022-09-02T06:11:15;16.00;;;14.20;;
8293;SDS011;4185;41.506;24.938;2022-09-02T06:13:45;16.37;;;13.83;;
8293;SDS011;4185;41.506;24.938;2022-09-02T06:16:13;18.67;;;14.90;;
8293;SDS011;4185;41.506;24.938;2022-09-02T06:18:43;18.87;;;14.33;;
8293;SDS011;4185;41.506;24.938;2022-09-02T06:21:09;16.37;;;13.73;;
8293;SDS011;4185;41.506;24.938;2022-09-02T06:23:37;16.23;;;14.20;;
8293;SDS011;4185;41.506;24.938;2022-09-02T06:26:05;19.63;;;15.07;;
8293;SDS011;4185;41.506;24.938;2022-09-02T06:28:33;19.70;;;13.97;;
8293;SDS011;4185;41.506;24.938;2022-09-02T06:31:06;17.77;;;13.83;;
8293;SDS011;4185;41.506;24.938;2022-09-02T06:33:33;20.50;;;14.40;;
8293;SDS011;4185;41.506;24.938;2022-09-02T06:36:00;17.90;;;13.40;;
8293;SDS011;4185;41.506;24.938;2022-09-02T06:38:27;16.10;;;11.93;;
8293;SDS011;4185;41.506;24.938;2022-09-02T06:40:54;15.77;;;12.10;;
8293;SDS011;4185;41.506;24.938;2022-09-02T06:43:21;15.60;;;12.27;;
8293;SDS011;4185;41.506;24.938;2022-09-02T06:45:49;16.93;;;11.87;;
8293;SDS011;4185;41.506;24.938;2022-09-02T06:48:17;13.07;;;10.80;;
8293;SDS011;4185;41.506;24.938;2022-09-02T06:50:44;14.63;;;11.40;;
8293;SDS011;4185;41.506;24.938;2022-09-02T06:53:12;14.03;;;11.47;;
8293;SDS011;4185;41.506;24.938;2022-09-02T06:55:42;15.27;;;12.00;;
8293;SDS011;4185;41.506;24.938;2022-09-02T06:58:10;15.33;;;12.57;;
8293;SDS011;4185;41.506;24.938;2022-09-02T07:00:38;20.63;;;13.43;;
8293;SDS011;4185;41.506;24.938;2022-09-02T07:03:06;13.23;;;10.80;;
8293;SDS011;4185;41.506;24.938;2022-09-02T07:06:03;17.17;;;11.10;;
8293;SDS011;4185;41.506;24.938;2022-09-02T07:08:34;14.03;;;11.17;;
8293;SDS011;4185;41.506;24.938;2022-09-02T07:11:02;15.37;;;10.73;;
8293;SDS011;4185;41.506;24.938;2022-09-02T07:13:30;15.37;;;10.13;;
8293;SDS011;4185;41.506;24.938;2022-09-02T07:15:57;13.50;;;11.00;;
8293;SDS011;4185;41.506;24.938;2022-09-02T07:18:24;14.47;;;10.20;;
8293;SDS011;4185;41.506;24.938;2022-09-02T07:20:51;15.10;;;10.47;;
8293;SDS011;4185;41.506;24.938;2022-09-02T07:23:21;15.73;;;11.20;;
8293;SDS011;4185;41.506;24.938;2022-09-02T07:25:48;14.17;;;10.80;;
8293;SDS011;4185;41.506;24.938;2022-09-02T07:28:15;12.13;;;9.83;;
8293;SDS011;4185;41.506;24.938;2022-09-02T07:30:42;15.30;;;10.57;;
8293;SDS011;4185;41.506;24.938;2022-09-02T07:33:10;13.13;;;8.27;;
8293;SDS011;4185;41.506;24.938;2022-09-02T07:35:38;15.47;;;8.80;;
8293;SDS011;4185;41.506;24.938;2022-09-02T07:38:06;12.60;;;9.73;;
8293;SDS011;4185;41.506;24.938;2022-09-02T07:40:35;11.63;;;9.77;;
8293;SDS011;4185;41.506;24.938;2022-09-02T07:43:03;11.30;;;9.23;;
8293;SDS011;4185;41.506;24.938;2022-09-02T07:45:32;14.03;;;9.60;;
8293;SDS011;4185;41.506;24.938;2022-09-02T07:48:01;10.10;;;9.00;;
8293;SDS011;4185;41.506;24.938;2022-09-02T07:50:31;14.07;;;9.83;;
8293;SDS011;4185;41.506;24.938;2022-09-02T07:53:00;10.67;;;9.27;;
8293;SDS011;4185;41.506;24.938;2022-09-02T07:55:31;9.73;;;8.63;;
8293;SDS011;4185;41.506;24.938;2022-09-02T07:58:02;11.90;;;9.17;;
8293;SDS011;4185;41.506;24.938;2022-09-02T08:00:29;11.13;;;9.97;;
8293;SDS011;4185;41.506;24.938;2022-09-02T08:02:56;13.13;;;8.97;;
8293;SDS011;4185;41.506;24.938;2022-09-02T08:05:24;9.87;;;8.87;;
8293;SDS011;4185;41.506;24.938;2022-09-02T08:07:51;15.03;;;9.80;;
8293;SDS011;4185;41.506;24.938;2022-09-02T08:10:19;10.87;;;8.47;;
8293;SDS011;4185;41.506;24.938;2022-09-02T08:12:51;9.50;;;8.33;;
8293;SDS011;4185;41.506;24.938;2022-09-02T08:15:19;11.90;;;8.97;;
8293;SDS011;4185;41.506;24.938;2022-09-02T08:17:48;10.03;;;8.70;;
8293;SDS011;4185;41.506;24.938;2022-09-02T08:20:15;17.50;;;8.80;;
8293;SDS011;4185;41.506;24.938;2022-09-02T08:22:42;10.27;;;8.97;;
8293;SDS011;4185;41.506;24.938;2022-09-02T08:25:09;12.10;;;8.13;;
8293;SDS011;4185;41.506;24.938;2022-09-02T08:27:37;11.23;;;8.63;;
8293;SDS011;4185;41.506;24.938;2022-09-02T08:30:04;11.23;;;7.47;;
8293;SDS011;4185;41.506;24.938;2022-09-02T08:32:36;10.03;;;6.87;;
8293;SDS011;4185;41.506;24.938;2022-09-02T08:35:04;8.10;;;6.90;;
8293;SDS011;4185;41.506;24.938;2022-09-02T08:37:32;8.97;;;7.60;;
8293;SDS011;4185;41.506;24.938;2022-09-02T08:40:00;12.63;;;7.93;;
8293;SDS011;4185;41.506;24.938;2022-09-02T08:42:30;8.27;;;6.67;;
8293;SDS011;4185;41.506;24.938;2022-09-02T08:44:59;10.20;;;6.93;;
8293;SDS011;4185;41.506;24.938;2022-09-02T08:47:34;9.17;;;6.90;;
8293;SDS011;4185;41.506;24.938;2022-09-02T08:50:04;8.70;;;6.50;;
8293;SDS011;4185;41.506;24.938;2022-09-02T08:52:37;8.83;;;6.00;;
8293;SDS011;4185;41.506;24.938;2022-09-02T08:55:09;10.60;;;6.80;;
8293;SDS011;4185;41.506;24.938;2022-09-02T08:57:39;7.73;;;6.13;;
8293;SDS011;4185;41.506;24.938;2022-09-02T09:00:07;7.30;;;5.93;;
8293;SDS011;4185;41.506;24.938;2022-09-02T09:02:38;11.20;;;6.20;;
8293;SDS011;4185;41.506;24.938;2022-09-02T09:05:17;8.20;;;5.90;;
8293;SDS011;4185;41.506;24.938;2022-09-02T09:07:54;8.53;;;5.87;;
8293;SDS011;4185;41.506;24.938;2022-09-02T09:10:30;8.97;;;6.43;;
8293;SDS011;4185;41.506;24.938;2022-09-02T09:13:11;9.93;;;5.57;;
8293;SDS011;4185;41.506;24.938;2022-09-02T09:15:48;8.40;;;6.03;;
8293;SDS011;4185;41.506;24.938;2022-09-02T09:18:24;10.13;;;5.90;;
8293;SDS011;4185;41.506;24.938;2022-09-02T09:20:58;8.90;;;5.90;;
8293;SDS011;4185;41.506;24.938;2022-09-02T09:23:27;9.57;;;6.33;;
8293;SDS011;4185;41.506;24.938;2022-09-02T09:26:03;10.67;;;5.73;;
8293;SDS011;4185;41.506;24.938;2022-09-02T09:28:36;9.73;;;5.87;;
8293;SDS011;4185;41.506;24.938;2022-09-02T09:31:07;13.17;;;6.67;;
8293;SDS011;4185;41.506;24.938;2022-09-02T09:33:38;9.23;;;6.63;;
8293;SDS011;4185;41.506;24.938;2022-09-02T09:36:05;10.07;;;5.93;;
8293;SDS011;4185;41.506;24.938;2022-09-02T09:38:34;9.30;;;6.10;;
8293;SDS011;4185;41.506;24.938;2022-09-02T09:43:50;9.83;;;6.20;;
8293;SDS011;4185;41.506;24.938;2022-09-02T09:46:21;8.00;;;5.97;;
8293;SDS011;4185;41.506;24.938;2022-09-02T09:48:53;11.43;;;6.80;;
8293;SDS011;4185;41.506;24.938;2022-09-02T09:51:21;10.80;;;6.43;;
8293;SDS011;4185;41.506;24.938;2022-09-02T09:53:48;9.33;;;5.97;;
8293;SDS011;4185;41.506;24.938;2022-09-02T09:56:26;10.47;;;7.00;;
8293;SDS011;4185;41.506;24.938;2022-09-02T09:58:58;7.63;;;6.07;;
8293;SDS011;4185;41.506;24.938;2022-09-02T10:01:27;12.57;;;6.47;;
8293;SDS011;4185;41.506;24.938;2022-09-02T10:03:58;10.37;;;6.30;;
8293;SDS011;4185;41.506;24.938;2022-09-02T10:06:37;11.00;;;6.30;;
8293;SDS011;4185;41.506;24.938;2022-09-02T10:11:57;8.20;;;6.87;;
8293;SDS011;4185;41.506;24.938;2022-09-02T10:14:25;11.67;;;6.80;;
8293;SDS011;4185;41.506;24.938;2022-09-02T10:16:59;8.67;;;6.07;;
8293;SDS011;4185;41.506;24.938;2022-09-02T10:19:51;8.57;;;6.50;;
8293;SDS011;4185;41.506;24.938;2022-09-02T10:22:31;9.50;;;6.00;;
8293;SDS011;4185;41.506;24.938;2022-09-02T10:25:20;7.20;;;6.17;;
8293;SDS011;4185;41.506;24.938;2022-09-02T10:27:56;7.73;;;5.83;;
8293;SDS011;4185;41.506;24.938;2022-09-02T10:30:28;7.22;;;6.05;;
8293;SDS011;4185;41.506;24.938;2022-09-02T10:33:12;11.37;;;7.47;;
8293;SDS011;4185;41.506;24.938;2022-09-02T10:35:53;23.10;;;10.73;;
8293;SDS011;4185;41.506;24.938;2022-09-02T10:38:31;9.05;;;6.00;;
8293;SDS011;4185;41.506;24.938;2022-09-02T10:41:06;9.77;;;6.40;;
8293;SDS011;4185;41.506;24.938;2022-09-02T10:43:49;7.55;;;6.03;;
8293;SDS011;4185;41.506;24.938;2022-09-02T10:46:31;10.85;;;6.05;;
8293;SDS011;4185;41.506;24.938;2022-09-02T10:49:09;5.88;;;5.28;;
8293;SDS011;4185;41.506;24.938;2022-09-02T10:51:47;8.93;;;5.78;;
8293;SDS011;4185;41.506;24.938;2022-09-02T10:54:24;7.90;;;5.50;;
8293;SDS011;4185;41.506;24.938;2022-09-02T10:57:03;10.43;;;5.93;;
8293;SDS011;4185;41.506;24.938;2022-09-02T10:59:37;8.15;;;5.05;;
8293;SDS011;4185;41.506;24.938;2022-09-02T11:02:10;10.32;;;6.25;;
8293;SDS011;4185;41.506;24.938;2022-09-02T11:04:42;7.90;;;5.90;;
8293;SDS011;4185;41.506;24.938;2022-09-02T11:07:15;7.28;;;5.93;;
8293;SDS011;4185;41.506;24.938;2022-09-02T11:09:47;6.90;;;5.65;;
8293;SDS011;4185;41.506;24.938;2022-09-02T11:12:20;7.57;;;5.20;;
8293;SDS011;4185;41.506;24.938;2022-09-02T11:14:55;6.55;;;5.88;;
8293;SDS011;4185;41.506;24.938;2022-09-02T11:17:30;8.32;;;5.50;;
8293;SDS011;4185;41.506;24.938;2022-09-02T11:20:06;7.35;;;5.40;;
8293;SDS011;4185;41.506;24.938;2022-09-02T11:22:41;9.77;;;5.45;;
8293;SDS011;4185;41.506;24.938;2022-09-02T11:25:16;7.20;;;5.63;;
8293;SDS011;4185;41.506;24.938;2022-09-02T11:27:48;10.38;;;5.07;;
8293;SDS011;4185;41.506;24.938;2022-09-02T11:30:24;6.70;;;5.05;;
8293;SDS011;4185;41.506;24.938;2022-09-02T11:33:01;8.40;;;6.00;;
8293;SDS011;4185;41.506;24.938;2022-09-02T11:35:38;7.88;;;5.50;;
8293;SDS011;4185;41.506;24.938;2022-09-02T11:38:09;8.82;;;5.72;;
8293;SDS011;4185;41.506;24.938;2022-09-02T11:40:58;9.65;;;5.55;;
8293;SDS011;4185;41.506;24.938;2022-09-02T11:43:45;7.32;;;5.43;;
8293;SDS011;4185;41.506;24.938;2022-09-02T11:49:42;8.38;;;5.90;;
8293;SDS011;4185;41.506;24.938;2022-09-02T11:52:23;9.63;;;5.32;;
8293;SDS011;4185;41.506;24.938;2022-09-02T11:55:00;7.40;;;5.53;;
8293;SDS011;4185;41.506;24.938;2022-09-02T11:57:32;9.02;;;5.47;;
8293;SDS011;4185;41.506;24.938;2022-09-02T12:02:55;9.30;;;5.82;;
8293;SDS011;4185;41.506;24.938;2022-09-02T12:05:45;7.72;;;5.45;;
8293;SDS011;4185;41.506;24.938;2022-09-02T12:11:36;13.00;;;5.60;;
8293;SDS011;4185;41.506;24.938;2022-09-02T12:35:50;8.20;;;5.25;;
8293;SDS011;4185;41.506;24.938;2022-09-02T12:38:25;7.43;;;5.30;;
8293;SDS011;4185;41.506;24.938;2022-09-02T12:41:20;10.30;;;5.95;;
8293;SDS011;4185;41.506;24.938;2022-09-02T12:44:04;8.07;;;5.82;;
8293;SDS011;4185;41.506;24.938;2022-09-02T12:46:47;8.48;;;6.00;;
8293;SDS011;4185;41.506;24.938;2022-09-02T12:49:24;8.27;;;5.93;;
8293;SDS011;4185;41.506;24.938;2022-09-02T12:51:59;9.02;;;6.75;;
8293;SDS011;4185;41.506;24.938;2022-09-02T12:54:31;7.93;;;5.95;;
8293;SDS011;4185;41.506;24.938;2022-09-02T12:57:07;8.35;;;5.85;;
8293;SDS011;4185;41.506;24.938;2022-09-02T12:59:36;7.78;;;5.95;;
8293;SDS011;4185;41.506;24.938;2022-09-02T13:05:12;7.72;;;5.95;;
8293;SDS011;4185;41.506;24.938;2022-09-02T13:07:54;7.40;;;5.70;;
8293;SDS011;4185;41.506;24.938;2022-09-02T13:10:55;7.65;;;6.25;;
8293;SDS011;4185;41.506;24.938;2022-09-02T13:13:54;8.50;;;5.80;;
8293;SDS011;4185;41.506;24.938;2022-09-02T13:16:46;6.57;;;5.65;;
8293;SDS011;4185;41.506;24.938;2022-09-02T13:22:32;8.75;;;5.80;;
8293;SDS011;4185;41.506;24.938;2022-09-02T13:28:37;7.18;;;6.13;;
8293;SDS011;4185;41.506;24.938;2022-09-02T13:31:21;8.43;;;6.13;;
8293;SDS011;4185;41.506;24.938;2022-09-02T13:33:56;8.80;;;6.60;;
8293;SDS011;4185;41.506;24.938;2022-09-02T13:36:26;10.70;;;6.20;;
8293;SDS011;4185;41.506;24.938;2022-09-02T13:38:54;7.28;;;6.25;;
8293;SDS011;4185;41.506;24.938;2022-09-02T13:41:28;7.82;;;6.22;;
8293;SDS011;4185;41.506;24.938;2022-09-02T13:44:05;9.05;;;6.47;;
8293;SDS011;4185;41.506;24.938;2022-09-02T13:46:45;10.02;;;6.25;;
8293;SDS011;4185;41.506;24.938;2022-09-02T13:49:26;10.45;;;7.57;;
8293;SDS011;4185;41.506;24.938;2022-09-02T13:51:57;8.80;;;5.82;;
8293;SDS011;4185;41.506;24.938;2022-09-02T13:54:28;10.85;;;6.18;;
8293;SDS011;4185;41.506;24.938;2022-09-02T13:56:59;11.30;;;6.70;;
8293;SDS011;4185;41.506;24.938;2022-09-02T13:59:32;13.10;;;9.00;;
8293;SDS011;4185;41.506;24.938;2022-09-02T14:02:14;55.67;;;29.88;;
8293;SDS011;4185;41.506;24.938;2022-09-02T14:04:48;12.20;;;8.15;;
8293;SDS011;4185;41.506;24.938;2022-09-02T14:07:18;9.90;;;7.03;;
8293;SDS011;4185;41.506;24.938;2022-09-02T14:09:50;9.73;;;6.63;;
8293;SDS011;4185;41.506;24.938;2022-09-02T14:12:17;8.80;;;6.53;;
8293;SDS011;4185;41.506;24.938;2022-09-02T14:14:45;10.15;;;6.50;;
8293;SDS011;4185;41.506;24.938;2022-09-02T14:17:19;9.95;;;6.18;;
8293;SDS011;4185;41.506;24.938;2022-09-02T14:19:49;8.32;;;6.55;;
8293;SDS011;4185;41.506;24.938;2022-09-02T14:22:23;10.02;;;6.82;;
8293;SDS011;4185;41.506;24.938;2022-09-02T14:24:52;9.00;;;6.85;;
8293;SDS011;4185;41.506;24.938;2022-09-02T14:27:20;8.50;;;6.30;;
8293;SDS011;4185;41.506;24.938;2022-09-02T14:29:52;11.18;;;6.78;;
8293;SDS011;4185;41.506;24.938;2022-09-02T14:32:22;6.30;;;5.33;;
8293;SDS011;4185;41.506;24.938;2022-09-02T14:37:46;6.87;;;4.20;;
8293;SDS011;4185;41.506;24.938;2022-09-02T14:40:14;6.77;;;4.37;;
8293;SDS011;4185;41.506;24.938;2022-09-02T14:42:45;5.50;;;3.97;;
8293;SDS011;4185;41.506;24.938;2022-09-02T14:45:14;5.40;;;4.10;;
8293;SDS011;4185;41.506;24.938;2022-09-02T14:47:51;7.33;;;4.53;;
8293;SDS011;4185;41.506;24.938;2022-09-02T14:50:21;5.40;;;4.10;;
8293;SDS011;4185;41.506;24.938;2022-09-02T14:52:53;4.23;;;3.70;;
8293;SDS011;4185;41.506;24.938;2022-09-02T14:58:12;5.03;;;3.77;;
8293;SDS011;4185;41.506;24.938;2022-09-02T15:00:39;6.47;;;4.87;;
8293;SDS011;4185;41.506;24.938;2022-09-02T15:03:06;4.70;;;4.03;;
8293;SDS011;4185;41.506;24.938;2022-09-02T15:05:35;5.13;;;4.63;;
8293;SDS011;4185;41.506;24.938;2022-09-02T15:08:02;4.80;;;4.30;;
8293;SDS011;4185;41.506;24.938;2022-09-02T15:10:29;5.03;;;4.07;;
8293;SDS011;4185;41.506;24.938;2022-09-02T15:12:57;4.80;;;4.27;;
8293;SDS011;4185;41.506;24.938;2022-09-02T15:15:25;5.67;;;5.07;;
8293;SDS011;4185;41.506;24.938;2022-09-02T15:17:52;6.93;;;6.23;;
8293;SDS011;4185;41.506;24.938;2022-09-02T15:20:20;5.27;;;4.77;;
8293;SDS011;4185;41.506;24.938;2022-09-02T15:22:50;4.70;;;4.30;;
8293;SDS011;4185;41.506;24.938;2022-09-02T15:25:17;4.60;;;3.73;;
8293;SDS011;4185;41.506;24.938;2022-09-02T15:27:44;5.10;;;3.77;;
8293;SDS011;4185;41.506;24.938;2022-09-02T15:30:11;6.03;;;3.93;;
8293;SDS011;4185;41.506;24.938;2022-09-02T15:32:38;5.50;;;3.90;;
8293;SDS011;4185;41.506;24.938;2022-09-02T15:35:05;5.23;;;3.90;;
8293;SDS011;4185;41.506;24.938;2022-09-02T15:37:33;6.93;;;4.00;;
8293;SDS011;4185;41.506;24.938;2022-09-02T15:40:04;4.83;;;3.97;;
8293;SDS011;4185;41.506;24.938;2022-09-02T15:42:32;4.50;;;4.00;;
8293;SDS011;4185;41.506;24.938;2022-09-02T15:45:00;3.90;;;3.47;;
8293;SDS011;4185;41.506;24.938;2022-09-02T15:47:28;5.83;;;4.13;;
8293;SDS011;4185;41.506;24.938;2022-09-02T15:49:56;5.37;;;3.90;;
8293;SDS011;4185;41.506;24.938;2022-09-02T15:52:23;5.40;;;3.90;;
8293;SDS011;4185;41.506;24.938;2022-09-02T15:54:50;5.13;;;4.30;;
8293;SDS011;4185;41.506;24.938;2022-09-02T15:57:20;5.43;;;4.40;;